sensor_id;sensor_type;location;lat;lon;timestamp;temperature;humidity
13684;DHT22;6914;53.552;9.908;2023-11-19T04:54:19;7.50;99.90
13684;DHT22;6914;53.552;9.908;2023-11-19T04:56:46;7.20;99.90
13684;DHT22;6914;53.552;9.908;2023-11-19T04:59:17;7.10;99.90
13684;DHT22;6914;53.552;9.908;2023-11-19T05:01:46;7.20;99.90
13684;DHT22;6914;53.552;9.908;2023-11-19T05:04:14;7.40;99.90
13684;DHT22;6914;53.552;9.908;2023-11-19T05:06:41;7.50;99.90
13684;DHT22;6914;53.552;9.908;2023-11-19T05:09:08;7.70;99.90
13684;DHT22;6914;53.552;9.908;2023-11-19T05:11:37;7.90;99.90
13684;DHT22;6914;53.552;9.908;2023-11-19T05:14:05;8.50;99.90
13684;DHT22;6914;53.552;9.908;2023-11-19T05:16:34;8.30;99.90
13684;DHT22;6914;53.552;9.908;2023-11-19T05:19:01;8.30;99.90
13684;DHT22;6914;53.552;9.908;2023-11-19T05:21:27;8.50;99.90
13684;DHT22;6914;53.552;9.908;2023-11-19T05:23:54;8.50;99.90
13684;DHT22;6914;53.552;9.908;2023-11-19T05:26:23;8.60;99.90
13684;DHT22;6914;53.552;9.908;2023-11-19T05:28:50;8.70;99.90
13684;DHT22;6914;53.552;9.908;2023-11-19T05:31:18;8.60;99.90
13684;DHT22;6914;53.552;9.908;2023-11-19T05:33:46;8.70;99.90
13684;DHT22;6914;53.552;9.908;2023-11-19T05:36:13;8.90;99.90
13684;DHT22;6914;53.552;9.908;2023-11-19T05:38:40;8.90;99.90
13684;DHT22;6914;53.552;9.908;2023-11-19T05:41:06;8.90;99.90
13684;DHT22;6914;53.552;9.908;2023-11-19T05:43:34;9.00;99.90
13684;DHT22;6914;53.552;9.908;2023-11-19T05:46:01;10.60;99.90
13684;DHT22;6914;53.552;9.908;2023-11-19T05:48:28;9.40;99.90
13684;DHT22;6914;53.552;9.908;2023-11-19T05:50:56;9.30;99.90
13684;DHT22;6914;53.552;9.908;2023-11-19T05:53:23;9.30;99.90
13684;DHT22;6914;53.552;9.908;2023-11-19T05:55:50;9.60;99.90
13684;DHT22;6914;53.552;9.908;2023-11-19T05:58:23;9.50;99.90
13684;DHT22;6914;53.552;9.908;2023-11-19T06:00:51;9.50;99.90
13684;DHT22;6914;53.552;9.908;2023-11-19T06:03:17;8.80;99.90
13684;DHT22;6914;53.552;9.908;2023-11-19T06:05:44;9.60;99.90
13684;DHT22;6914;53.552;9.908;2023-11-19T06:08:13;9.70;99.90
13684;DHT22;6914;53.552;9.908;2023-11-19T06:10:40;9.40;99.90
13684;DHT22;6914;53.552;9.908;2023-11-19T06:13:07;9.70;99.90
13684;DHT22;6914;53.552;9.908;2023-11-19T06:15:35;9.90;99.90
13684;DHT22;6914;53.552;9.908;2023-11-19T06:18:03;9.80;99.90
13684;DHT22;6914;53.552;9.908;2023-11-19T06:20:29;9.90;99.90
13684;DHT22;6914;53.552;9.908;2023-11-19T06:22:57;9.90;99.90
13684;DHT22;6914;53.552;9.908;2023-11-19T06:25:26;9.90;99.90
13684;DHT22;6914;53.552;9.908;2023-11-19T06:27:53;10.00;99.90
13684;DHT22;6914;53.552;9.908;2023-11-19T06:30:20;10.00;99.90
13684;DHT22;6914;53.552;9.908;2023-11-19T06:32:47;10.10;99.90
13684;DHT22;6914;53.552;9.908;2023-11-19T06:35:14;10.30;99.90
13684;DHT22;6914;53.552;9.908;2023-11-19T06:37:41;10.20;99.90
13684;DHT22;6914;53.552;9.908;2023-11-19T06:40:09;10.30;99.90
13684;DHT22;6914;53.552;9.908;2023-11-19T06:42:38;10.20;99.90
13684;DHT22;6914;53.552;9.908;2023-11-19T06:45:06;10.20;99.90
13684;DHT22;6914;53.552;9.908;2023-11-19T06:47:33;10.30;99.90
13684;DHT22;6914;53.552;9.908;2023-11-19T06:50:01;10.40;99.90
13684;DHT22;6914;53.552;9.908;2023-11-19T06:52:31;10.30;99.90
13684;DHT22;6914;53.552;9.908;2023-11-19T07:07:17;10.30;99.90
13684;DHT22;6914;53.552;9.908;2023-11-19T07:09:45;10.60;99.90
13684;DHT22;6914;53.552;9.908;2023-11-19T07:12:13;10.40;99.90
13684;DHT22;6914;53.552;9.908;2023-11-19T07:14:40;10.80;99.90
13684;DHT22;6914;53.552;9.908;2023-11-19T07:17:09;10.60;99.90
13684;DHT22;6914;53.552;9.908;2023-11-19T07:19:36;10.50;99.90
13684;DHT22;6914;53.552;9.908;2023-11-19T07:22:05;10.80;99.90
13684;DHT22;6914;53.552;9.908;2023-11-19T07:24:32;10.50;99.90
13684;DHT22;6914;53.552;9.908;2023-11-19T07:26:59;10.50;99.90
13684;DHT22;6914;53.552;9.908;2023-11-19T07:31:55;10.50;99.90
13684;DHT22;6914;53.552;9.908;2023-11-19T07:34:24;10.30;99.90
13684;DHT22;6914;53.552;9.908;2023-11-19T07:36:50;10.50;99.90
13684;DHT22;6914;53.552;9.908;2023-11-19T07:39:17;10.50;99.90
13684;DHT22;6914;53.552;9.908;2023-11-19T07:41:46;10.50;99.90
13684;DHT22;6914;53.552;9.908;2023-11-19T07:44:13;10.50;99.90
13684;DHT22;6914;53.552;9.908;2023-11-19T07:46:39;10.60;99.90
13684;DHT22;6914;53.552;9.908;2023-11-19T07:49:07;10.90;99.90
13684;DHT22;6914;53.552;9.908;2023-11-19T07:51:36;10.70;99.90
13684;DHT22;6914;53.552;9.908;2023-11-19T07:54:05;10.80;99.90
13684;DHT22;6914;53.552;9.908;2023-11-19T07:56:32;10.70;99.90
13684;DHT22;6914;53.552;9.908;2023-11-19T07:58:59;10.80;99.90
13684;DHT22;6914;53.552;9.908;2023-11-19T08:01:26;10.70;99.90
13684;DHT22;6914;53.552;9.908;2023-11-19T08:45:53;10.90;99.90
13684;DHT22;6914;53.552;9.908;2023-11-19T08:48:20;11.00;99.90
13684;DHT22;6914;53.552;9.908;2023-11-19T08:50:46;11.00;99.90
13684;DHT22;6914;53.552;9.908;2023-11-19T08:53:13;10.90;99.90
13684;DHT22;6914;53.552;9.908;2023-11-19T08:55:40;11.00;99.90
13684;DHT22;6914;53.552;9.908;2023-11-19T08:58:07;11.00;99.90
13684;DHT22;6914;53.552;9.908;2023-11-19T09:00:35;9.70;99.90
13684;DHT22;6914;53.552;9.908;2023-11-19T09:03:03;11.00;99.90
13684;DHT22;6914;53.552;9.908;2023-11-19T09:05:30;11.00;99.90
13684;DHT22;6914;53.552;9.908;2023-11-19T09:07:57;12.40;99.90
13684;DHT22;6914;53.552;9.908;2023-11-19T09:10:24;11.00;99.90
13684;DHT22;6914;53.552;9.908;2023-11-19T09:12:52;11.00;99.90
13684;DHT22;6914;53.552;9.908;2023-11-19T09:15:19;11.10;99.90
13684;DHT22;6914;53.552;9.908;2023-11-19T09:17:47;10.70;99.90
13684;DHT22;6914;53.552;9.908;2023-11-19T09:20:14;12.90;99.90
13684;DHT22;6914;53.552;9.908;2023-11-19T09:22:41;11.10;99.90
13684;DHT22;6914;53.552;9.908;2023-11-19T09:25:08;11.80;99.90
13684;DHT22;6914;53.552;9.908;2023-11-19T09:27:35;11.90;99.90
13684;DHT22;6914;53.552;9.908;2023-11-19T09:30:01;12.30;99.90
13684;DHT22;6914;53.552;9.908;2023-11-19T09:32:29;11.20;99.90
13684;DHT22;6914;53.552;9.908;2023-11-19T09:34:57;11.20;99.90
13684;DHT22;6914;53.552;9.908;2023-11-19T09:37:24;11.20;99.90
13684;DHT22;6914;53.552;9.908;2023-11-19T09:39:51;15.00;99.90
13684;DHT22;6914;53.552;9.908;2023-11-19T09:42:19;14.10;99.90
13684;DHT22;6914;53.552;9.908;2023-11-19T09:44:47;14.60;99.90
13684;DHT22;6914;53.552;9.908;2023-11-19T09:47:14;11.30;99.90
13684;DHT22;6914;53.552;9.908;2023-11-19T09:49:43;11.40;99.90
13684;DHT22;6914;53.552;9.908;2023-11-19T09:52:11;11.30;99.90
13684;DHT22;6914;53.552;9.908;2023-11-19T09:54:38;11.20;99.90
13684;DHT22;6914;53.552;9.908;2023-11-19T09:57:06;11.20;99.90
13684;DHT22;6914;53.552;9.908;2023-11-19T09:59:37;11.20;99.90
13684;DHT22;6914;53.552;9.908;2023-11-19T10:02:05;13.90;99.90
13684;DHT22;6914;53.552;9.908;2023-11-19T10:04:34;11.10;99.90
13684;DHT22;6914;53.552;9.908;2023-11-19T10:07:02;11.10;99.90
13684;DHT22;6914;53.552;9.908;2023-11-19T10:09:30;11.10;99.90
13684;DHT22;6914;53.552;9.908;2023-11-19T10:11:57;10.70;99.90
13684;DHT22;6914;53.552;9.908;2023-11-19T10:14:24;11.20;99.90
13684;DHT22;6914;53.552;9.908;2023-11-19T10:16:50;11.10;99.90
13684;DHT22;6914;53.552;9.908;2023-11-19T10:19:20;11.10;99.90
